Time,TemperatureF,DewpointF,PressureIn,WindDirection,WindDirectionDegrees,WindSpeedMPH,WindSpeedGustMPH,Humidity,HourlyPrecipIn,Conditions,Clouds,dailyrainin,SoftwareType,DateUTC
2013-06-26 00:00:00,76.6,72.1,29.66,ESE,119,1.0,5.0,86,0.00,,,0.00,VWS V14.01,2013-06-26 05:00:00,
2013-06-26 00:05:00,76.6,72.1,29.66,SE,143,0.0,3.0,86,0.00,,,0.00,VWS V14.01,2013-06-26 05:05:00,
2013-06-26 00:10:00,76.5,72.0,29.65,ESE,119,1.0,3.0,86,0.00,,,0.00,VWS V14.01,2013-06-26 05:10:00,
2013-06-26 00:15:00,76.4,72.2,29.65,ESE,118,1.0,3.0,87,0.00,,,0.00,VWS V14.01,2013-06-26 05:15:00,
2013-06-26 00:20:00,76.3,72.2,29.65,SE,127,2.0,3.0,87,0.00,,,0.00,VWS V14.01,2013-06-26 05:20:00,
2013-06-26 00:25:00,76.2,71.7,29.64,ESE,122,2.0,3.0,86,0.00,,,0.00,VWS V14.01,2013-06-26 05:25:00,
2013-06-26 00:30:00,76.1,71.6,29.64,SSE,156,2.0,5.0,86,0.00,,,0.00,VWS V14.01,2013-06-26 05:30:00,
2013-06-26 00:35:00,76.0,71.5,29.64,SE,125,0.0,1.0,86,0.00,,,0.00,VWS V14.01,2013-06-26 05:35:00,
2013-06-26 00:40:00,75.9,71.4,29.64,SE,132,1.0,2.0,86,0.00,,,0.00,VWS V14.01,2013-06-26 05:40:00,
2013-06-26 00:45:00,75.8,71.7,29.63,ESE,116,1.0,3.0,87,0.00,,,0.00,VWS V14.01,2013-06-26 05:45:00,
2013-06-26 00:50:00,75.8,71.7,29.63,SE,145,2.0,3.0,87,0.00,,,0.00,VWS V14.01,2013-06-26 05:50:00,
2013-06-26 00:55:00,75.7,71.6,29.63,SE,141,1.0,3.0,87,0.00,,,0.00,VWS V14.01,2013-06-26 05:55:00,
2013-06-26 01:01:00,75.6,71.5,29.63,ESE,118,3.0,6.0,87,0.00,,,0.00,VWS V14.01,2013-06-26 06:01:00,
2013-06-26 01:06:00,75.6,71.5,29.63,SE,140,1.0,3.0,87,0.00,,,0.00,VWS V14.01,2013-06-26 06:06:00,
2013-06-26 01:11:00,75.5,71.4,29.63,ESE,118,1.0,3.0,87,0.00,,,0.00,VWS V14.01,2013-06-26 06:11:00,
2013-06-26 01:16:00,75.4,71.3,29.63,ESE,118,0.0,3.0,87,0.00,,,0.00,VWS V14.01,2013-06-26 06:16:00,
2013-06-26 01:21:00,75.3,71.2,29.63,ESE,118,0.0,3.0,87,0.00,,,0.00,VWS V14.01,2013-06-26 06:21:00,
2013-06-26 01:26:00,75.1,71.0,29.63,ESE,118,0.0,3.0,87,0.00,,,0.00,VWS V14.01,2013-06-26 06:26:00,
2013-06-26 01:31:00,74.9,70.8,29.63,ESE,118,0.0,3.0,87,0.00,,,0.00,VWS V14.01,2013-06-26 06:31:00,
2013-06-26 01:36:00,74.7,70.2,29.63,ESE,118,0.0,1.0,86,0.00,,,0.00,VWS V14.01,2013-06-26 06:36:00,
2013-06-26 01:41:00,74.6,70.1,29.63,ESE,118,0.0,1.0,86,0.00,,,0.00,VWS V14.01,2013-06-26 06:41:00,
2013-06-26 01:47:00,74.5,70.0,29.63,SW,214,0.0,3.0,86,0.00,,,0.00,VWS V14.01,2013-06-26 06:47:00,
2013-06-26 01:52:00,74.6,70.1,29.63,NE,52,2.0,5.0,86,0.00,,,0.00,VWS V14.01,2013-06-26 06:52:00,
2013-06-26 01:57:00,74.9,70.4,29.63,SE,124,1.0,5.0,86,0.00,,,0.00,VWS V14.01,2013-06-26 06:57:00,
2013-06-26 02:02:00,75.1,70.6,29.63,ENE,62,0.0,8.0,86,0.00,,,0.00,VWS V14.01,2013-06-26 07:02:00,
2013-06-26 02:07:00,75.2,71.1,29.62,SE,126,1.0,2.0,87,0.00,,,0.00,VWS V14.01,2013-06-26 07:07:00,
2013-06-26 02:12:00,75.2,71.1,29.62,ESE,119,2.0,3.0,87,0.00,,,0.00,VWS V14.01,2013-06-26 07:12:00,
2013-06-26 02:17:00,75.1,71.0,29.62,ESE,105,0.0,3.0,87,0.00,,,0.00,VWS V14.01,2013-06-26 07:17:00,
2013-06-26 02:22:00,75.1,71.0,29.62,ESE,104,0.0,3.0,87,0.00,,,0.00,VWS V14.01,2013-06-26 07:22:00,
2013-06-26 02:27:00,74.9,70.8,29.62,ESE,104,0.0,3.0,87,0.00,,,0.00,VWS V14.01,2013-06-26 07:27:00,
2013-06-26 02:32:00,74.8,70.7,29.62,ESE,105,0.0,3.0,87,0.00,,,0.00,VWS V14.01,2013-06-26 07:32:00,
2013-06-26 02:38:00,74.7,70.6,29.62,ESE,104,0.0,1.0,87,0.00,,,0.00,VWS V14.01,2013-06-26 07:38:00,
2013-06-26 02:43:00,74.5,70.0,29.62,ESE,104,0.0,1.0,86,0.00,,,0.00,VWS V14.01,2013-06-26 07:43:00,
2013-06-26 02:48:00,74.3,69.8,29.62,ESE,105,0.0,1.0,86,0.00,,,0.00,VWS V14.01,2013-06-26 07:48:00,
2013-06-26 02:49:00,74.3,70.2,29.62,ESE,105,0.0,1.0,87,0.00,,,0.00,VWS V14.01,2013-06-26 07:49:00,
2013-06-26 02:54:00,74.1,70.0,29.62,ESE,105,0.0,1.0,87,0.00,,,0.00,VWS V14.01,2013-06-26 07:54:00,
2013-06-26 02:59:00,73.9,69.4,29.62,ESE,105,0.0,1.0,86,0.00,,,0.00,VWS V14.01,2013-06-26 07:59:00,
2013-06-26 03:04:00,73.8,69.3,29.62,ESE,104,0.0,0.0,86,0.00,,,0.00,VWS V14.01,2013-06-26 08:04:00,
2013-06-26 03:09:00,73.7,69.3,29.62,ESE,104,0.0,0.0,86,0.00,,,0.00,VWS V14.01,2013-06-26 08:09:00,
2013-06-26 03:15:00,73.5,69.1,29.61,ESE,104,0.0,0.0,86,0.00,,,0.00,VWS V14.01,2013-06-26 08:15:00,
2013-06-26 03:20:00,73.3,68.9,29.61,ESE,104,0.0,0.0,86,0.00,,,0.00,VWS V14.01,2013-06-26 08:20:00,
2013-06-26 03:25:00,73.1,68.7,29.61,ESE,104,0.0,0.0,86,0.00,,,0.00,VWS V14.01,2013-06-26 08:25:00,
2013-06-26 03:30:00,73.0,68.2,29.61,ESE,104,0.0,0.0,85,0.00,,,0.00,VWS V14.01,2013-06-26 08:30:00,
2013-06-26 03:35:00,72.9,68.1,29.61,ESE,105,0.0,1.0,85,0.00,,,0.00,VWS V14.01,2013-06-26 08:35:00,
2013-06-26 03:40:00,72.8,68.0,29.61,ESE,104,0.0,1.0,85,0.00,,,0.00,VWS V14.01,2013-06-26 08:40:00,
2013-06-26 03:45:00,72.6,67.8,29.61,ESE,104,0.0,1.0,85,0.00,,,0.00,VWS V14.01,2013-06-26 08:45:00,
2013-06-26 03:50:00,72.5,67.7,29.61,ESE,104,0.0,1.0,85,0.00,,,0.00,VWS V14.01,2013-06-26 08:50:00,
2013-06-26 03:55:00,72.4,67.6,29.62,ESE,104,0.0,1.0,85,0.00,,,0.00,VWS V14.01,2013-06-26 08:55:00,
2013-06-26 04:00:00,72.3,67.5,29.62,ESE,104,0.0,1.0,85,0.00,,,0.00,VWS V14.01,2013-06-26 09:00:00,
2013-06-26 04:06:00,72.3,67.5,29.62,ESE,104,0.0,0.0,85,0.00,,,0.00,VWS V14.01,2013-06-26 09:06:00,
2013-06-26 04:11:00,72.2,67.4,29.62,ESE,104,0.0,0.0,85,0.00,,,0.00,VWS V14.01,2013-06-26 09:11:00,
2013-06-26 04:16:00,72.1,67.3,29.62,ESE,104,0.0,1.0,85,0.00,,,0.00,VWS V14.01,2013-06-26 09:16:00,
2013-06-26 04:21:00,72.0,67.2,29.63,ESE,105,0.0,1.0,85,0.00,,,0.00,VWS V14.01,2013-06-26 09:21:00,
2013-06-26 04:26:00,71.9,67.2,29.64,ESE,104,0.0,1.0,85,0.00,,,0.00,VWS V14.01,2013-06-26 09:26:00,
2013-06-26 04:31:00,71.9,66.8,29.64,ESE,104,0.0,1.0,84,0.00,,,0.00,VWS V14.01,2013-06-26 09:31:00,
2013-06-26 04:36:00,71.9,66.8,29.64,ESE,104,0.0,0.0,84,0.00,,,0.00,VWS V14.01,2013-06-26 09:36:00,
2013-06-26 04:41:00,71.8,66.7,29.63,ESE,104,0.0,0.0,84,0.00,,,0.00,VWS V14.01,2013-06-26 09:41:00,
2013-06-26 04:46:00,71.7,66.6,29.63,ESE,104,0.0,1.0,84,0.00,,,0.00,VWS V14.01,2013-06-26 09:46:00,
2013-06-26 04:52:00,71.6,66.5,29.63,ESE,104,0.0,1.0,84,0.00,,,0.00,VWS V14.01,2013-06-26 09:52:00,
2013-06-26 04:57:00,71.5,66.4,29.63,ESE,104,0.0,1.0,84,0.00,,,0.00,VWS V14.01,2013-06-26 09:57:00,
2013-06-26 05:02:00,71.6,66.2,29.62,ESE,106,0.0,2.0,83,0.00,,,0.00,VWS V14.01,2013-06-26 10:02:00,
2013-06-26 05:07:00,71.5,66.4,29.63,ESE,107,0.0,0.0,84,0.00,,,0.00,VWS V14.01,2013-06-26 10:07:00,
2013-06-26 05:12:00,71.6,66.2,29.62,ESE,107,0.0,1.0,83,0.00,,,0.00,VWS V14.01,2013-06-26 10:12:00,
2013-06-26 05:17:00,71.6,66.2,29.62,ESE,107,0.0,1.0,83,0.00,,,0.00,VWS V14.01,2013-06-26 10:17:00,
2013-06-26 05:22:00,71.5,66.1,29.63,ESE,107,0.0,1.0,83,0.00,,,0.00,VWS V14.01,2013-06-26 10:22:00,
2013-06-26 05:27:00,71.5,66.4,29.63,ESE,107,0.0,1.0,84,0.00,,,0.00,VWS V14.01,2013-06-26 10:27:00,
2013-06-26 05:32:00,71.4,66.3,29.63,ESE,107,0.0,1.0,84,0.00,,,0.00,VWS V14.01,2013-06-26 10:32:00,
2013-06-26 05:38:00,71.3,65.9,29.63,ESE,107,0.0,0.0,83,0.00,,,0.00,VWS V14.01,2013-06-26 10:38:00,
2013-06-26 05:43:00,71.3,66.2,29.62,ESE,106,0.0,0.0,84,0.00,,,0.00,VWS V14.01,2013-06-26 10:43:00,
2013-06-26 05:48:00,71.2,66.1,29.62,ESE,107,0.0,0.0,84,0.00,,,0.00,VWS V14.01,2013-06-26 10:48:00,
2013-06-26 05:53:00,71.2,66.1,29.62,ESE,107,0.0,0.0,84,0.00,,,0.00,VWS V14.01,2013-06-26 10:53:00,
2013-06-26 05:58:00,71.1,66.0,29.62,ESE,107,0.0,0.0,84,0.00,,,0.00,VWS V14.01,2013-06-26 10:58:00,
2013-06-26 06:03:00,71.1,65.7,29.62,ESE,107,0.0,0.0,83,0.00,,,0.00,VWS V14.01,2013-06-26 11:03:00,
2013-06-26 06:08:00,71.1,65.7,29.63,ESE,107,0.0,0.0,83,0.00,,,0.00,VWS V14.01,2013-06-26 11:08:00,
2013-06-26 06:13:00,71.2,65.8,29.64,ESE,107,0.0,0.0,83,0.00,,,0.00,VWS V14.01,2013-06-26 11:13:00,
2013-06-26 06:18:00,71.2,65.4,29.65,ESE,107,0.0,0.0,82,0.00,,,0.00,VWS V14.01,2013-06-26 11:18:00,
2013-06-26 06:23:00,71.4,65.6,29.65,ESE,107,0.0,0.0,82,0.00,,,0.00,VWS V14.01,2013-06-26 11:23:00,
2013-06-26 06:28:00,71.5,65.7,29.64,ESE,107,0.0,0.0,82,0.00,,,0.00,VWS V14.01,2013-06-26 11:28:00,
2013-06-26 06:34:00,71.4,66.0,29.64,ESE,106,0.0,0.0,83,0.00,,,0.00,VWS V14.01,2013-06-26 11:34:00,
2013-06-26 06:39:00,71.5,65.7,29.63,SE,131,0.0,2.0,82,0.00,,,0.00,VWS V14.01,2013-06-26 11:39:00,
2013-06-26 06:44:00,71.7,65.9,29.63,SE,127,0.0,2.0,82,0.00,,,0.00,VWS V14.01,2013-06-26 11:44:00,
2013-06-26 06:49:00,71.9,65.8,29.63,East,99,2.0,4.0,81,0.00,,,0.00,VWS V14.01,2013-06-26 11:49:00,
2013-06-26 06:54:00,72.1,66.3,29.62,SE,145,1.0,4.0,82,0.00,,,0.00,VWS V14.01,2013-06-26 11:54:00,
2013-06-26 06:59:00,72.3,66.5,29.61,SE,128,1.0,4.0,82,0.00,,,0.00,VWS V14.01,2013-06-26 11:59:00,
2013-06-26 07:04:00,72.4,66.6,29.61,ESE,108,0.0,3.0,82,0.00,,,0.00,VWS V14.01,2013-06-26 12:04:00,
2013-06-26 07:09:00,72.6,67.2,29.62,ESE,122,0.0,4.0,83,0.00,,,0.00,VWS V14.01,2013-06-26 12:09:00,
2013-06-26 07:14:00,72.8,67.3,29.62,ESE,112,1.0,4.0,83,0.00,,,0.00,VWS V14.01,2013-06-26 12:14:00,
2013-06-26 07:19:00,73.0,67.9,29.62,ESE,102,2.0,4.0,84,0.00,,,0.00,VWS V14.01,2013-06-26 12:19:00,
2013-06-26 07:25:00,73.2,68.4,29.61,ESE,114,2.0,4.0,85,0.00,,,0.00,VWS V14.01,2013-06-26 12:25:00,
2013-06-26 07:30:00,73.5,68.7,29.61,ESE,119,3.0,4.0,85,0.00,,,0.00,VWS V14.01,2013-06-26 12:30:00,
2013-06-26 07:35:00,73.7,69.3,29.61,SE,137,0.0,5.0,86,0.00,,,0.00,VWS V14.01,2013-06-26 12:35:00,
2013-06-26 07:40:00,73.9,69.4,29.62,ENE,64,1.0,5.0,86,0.00,,,0.00,VWS V14.01,2013-06-26 12:40:00,
2013-06-26 07:45:00,74.0,69.9,29.62,SSW,194,0.0,5.0,87,0.00,,,0.00,VWS V14.01,2013-06-26 12:45:00,
2013-06-26 07:50:00,74.2,70.1,29.62,SE,125,0.0,5.0,87,0.00,,,0.00,VWS V14.01,2013-06-26 12:50:00,
2013-06-26 07:55:00,74.4,70.3,29.61,SE,135,2.0,5.0,87,0.00,,,0.00,VWS V14.01,2013-06-26 12:55:00,
2013-06-26 08:00:00,74.6,70.5,29.61,SE,129,0.0,5.0,87,0.00,,,0.00,VWS V14.01,2013-06-26 13:00:00,
2013-06-26 08:05:00,74.8,70.7,29.62,SSE,148,0.0,1.0,87,0.00,,,0.00,VWS V14.01,2013-06-26 13:05:00,
2013-06-26 08:10:00,74.9,70.8,29.62,SSE,148,0.0,1.0,87,0.00,,,0.00,VWS V14.01,2013-06-26 13:10:00,
2013-06-26 08:16:00,75.1,71.3,29.62,SE,128,0.0,2.0,88,0.00,,,0.00,VWS V14.01,2013-06-26 13:16:00,
2013-06-26 08:21:00,75.1,71.3,29.62,SE,129,0.0,2.0,88,0.00,,,0.00,VWS V14.01,2013-06-26 13:21:00,
2013-06-26 08:26:00,75.1,71.3,29.62,SE,127,0.0,2.0,88,0.00,,,0.00,VWS V14.01,2013-06-26 13:26:00,
2013-06-26 08:31:00,75.2,71.4,29.62,SE,137,0.0,3.0,88,0.00,,,0.00,VWS V14.01,2013-06-26 13:31:00,
2013-06-26 08:36:00,75.3,71.2,29.62,SSE,147,1.0,1.0,87,0.00,,,0.00,VWS V14.01,2013-06-26 13:36:00,
2013-06-26 08:41:00,75.4,71.3,29.61,WSW,241,0.0,3.0,87,0.00,,,0.00,VWS V14.01,2013-06-26 13:41:00,
2013-06-26 08:46:00,75.5,71.7,29.61,WSW,241,0.0,3.0,88,0.00,,,0.00,VWS V14.01,2013-06-26 13:46:00,
2013-06-26 08:51:00,75.5,71.7,29.61,SE,133,0.0,3.0,88,0.00,,,0.00,VWS V14.01,2013-06-26 13:51:00,
2013-06-26 08:56:00,75.5,71.7,29.61,SE,133,0.0,3.0,88,0.00,,,0.00,VWS V14.01,2013-06-26 13:56:00,
2013-06-26 09:02:00,75.6,71.8,29.62,SE,131,0.0,3.0,88,0.00,,,0.00,VWS V14.01,2013-06-26 14:02:00,
2013-06-26 09:07:00,75.6,71.8,29.62,ESE,121,0.0,1.0,88,0.00,,,0.00,VWS V14.01,2013-06-26 14:07:00,
2013-06-26 09:12:00,75.6,71.8,29.62,SE,127,1.0,3.0,88,0.00,,,0.00,VWS V14.01,2013-06-26 14:12:00,
2013-06-26 09:17:00,75.7,71.9,29.62,ENE,61,0.0,3.0,88,0.00,,,0.00,VWS V14.01,2013-06-26 14:17:00,
2013-06-26 09:22:00,75.9,71.8,29.62,ENE,60,0.0,3.0,87,0.00,,,0.00,VWS V14.01,2013-06-26 14:22:00,
2013-06-26 09:27:00,76.1,71.9,29.62,ESE,121,0.0,3.0,87,0.00,,,0.00,VWS V14.01,2013-06-26 14:27:00,
2013-06-26 09:32:00,76.4,72.2,29.63,West,259,0.0,3.0,87,0.00,,,0.00,VWS V14.01,2013-06-26 14:32:00,
2013-06-26 09:37:00,76.7,72.5,29.63,South,189,0.0,2.0,87,0.00,,,0.00,VWS V14.01,2013-06-26 14:37:00,
2013-06-26 09:42:00,77.0,72.8,29.64,SW,230,0.0,5.0,87,0.00,,,0.00,VWS V14.01,2013-06-26 14:42:00,
2013-06-26 09:48:00,77.3,73.1,29.64,South,182,0.0,5.0,87,0.00,,,0.00,VWS V14.01,2013-06-26 14:48:00,
2013-06-26 09:53:00,77.5,73.3,29.65,SSW,206,2.0,5.0,87,0.00,,,0.00,VWS V14.01,2013-06-26 14:53:00,
2013-06-26 09:58:00,77.6,73.4,29.65,SW,228,1.0,5.0,87,0.00,,,0.00,VWS V14.01,2013-06-26 14:58:00,
2013-06-26 10:03:00,77.8,73.6,29.65,WSW,253,0.0,5.0,87,0.00,,,0.00,VWS V14.01,2013-06-26 15:03:00,
2013-06-26 10:08:00,77.9,73.7,29.65,WSW,243,2.0,5.0,87,0.00,,,0.00,VWS V14.01,2013-06-26 15:08:00,
2013-06-26 10:13:00,78.0,73.8,29.65,West,260,0.0,5.0,87,0.00,,,0.00,VWS V14.01,2013-06-26 15:13:00,
2013-06-26 10:18:00,78.0,73.5,29.65,WSW,239,0.0,5.0,86,0.00,,,0.00,VWS V14.01,2013-06-26 15:18:00,
2013-06-26 10:23:00,78.0,73.5,29.65,WSW,255,1.0,5.0,86,0.00,,,0.00,VWS V14.01,2013-06-26 15:23:00,
2013-06-26 10:28:00,78.1,73.9,29.65,WSW,245,1.0,5.0,87,0.00,,,0.00,VWS V14.01,2013-06-26 15:28:00,
2013-06-26 10:33:00,78.1,73.6,29.65,WNW,282,1.0,5.0,86,0.00,,,0.00,VWS V14.01,2013-06-26 15:33:00,
2013-06-26 10:38:00,78.1,73.6,29.65,West,261,2.0,6.0,86,0.00,,,0.00,VWS V14.01,2013-06-26 15:38:00,
2013-06-26 10:43:00,78.3,74.1,29.65,WSW,255,1.0,6.0,87,0.00,,,0.00,VWS V14.01,2013-06-26 15:43:00,
2013-06-26 10:49:00,78.5,74.0,29.65,WSW,253,2.0,6.0,86,0.00,,,0.00,VWS V14.01,2013-06-26 15:49:00,
2013-06-26 10:54:00,78.8,74.3,29.66,West,269,4.0,6.0,86,0.00,,,0.00,VWS V14.01,2013-06-26 15:54:00,
2013-06-26 10:59:00,79.1,74.6,29.66,WSW,250,2.0,7.0,86,0.00,,,0.00,VWS V14.01,2013-06-26 15:59:00,
2013-06-26 11:04:00,79.5,75.3,29.65,West,266,0.0,1.0,87,0.00,,,0.00,VWS V14.01,2013-06-26 16:04:00,
2013-06-26 11:09:00,80.0,75.1,29.66,West,268,3.0,5.0,85,0.00,,,0.00,VWS V14.01,2013-06-26 16:09:00,
2013-06-26 11:14:00,80.6,75.3,29.66,SW,226,1.0,6.0,84,0.00,,,0.00,VWS V14.01,2013-06-26 16:14:00,
2013-06-26 11:19:00,81.4,76.5,29.66,WNW,283,1.0,6.0,85,0.00,,,0.00,VWS V14.01,2013-06-26 16:19:00,
2013-06-26 11:24:00,82.3,76.3,29.65,NE,35,1.0,6.0,82,0.00,,,0.00,VWS V14.01,2013-06-26 16:24:00,
2013-06-26 11:29:00,83.1,75.5,29.65,South,189,0.0,6.0,78,0.00,,,0.00,VWS V14.01,2013-06-26 16:29:00,
2013-06-26 11:34:00,83.8,77.0,29.65,West,260,4.0,4.0,80,0.00,,,0.00,VWS V14.01,2013-06-26 16:34:00,
2013-06-26 11:39:00,84.4,76.0,29.65,South,181,1.0,6.0,76,0.00,,,0.00,VWS V14.01,2013-06-26 16:39:00,
2013-06-26 11:44:00,84.8,76.4,29.65,WSW,245,0.0,6.0,76,0.00,,,0.00,VWS V14.01,2013-06-26 16:44:00,
2013-06-26 11:49:00,85.2,76.4,29.65,SW,222,2.0,6.0,75,0.00,,,0.00,VWS V14.01,2013-06-26 16:49:00,
2013-06-26 11:54:00,85.8,76.6,29.65,WNW,303,3.0,6.0,74,0.00,,,0.00,VWS V14.01,2013-06-26 16:54:00,
2013-06-26 11:59:00,86.4,76.7,29.65,South,181,0.0,6.0,73,0.00,,,0.00,VWS V14.01,2013-06-26 16:59:00,
2013-06-26 12:05:00,86.5,76.4,29.65,WNW,282,2.0,3.0,72,0.00,,,0.00,VWS V14.01,2013-06-26 17:05:00,
2013-06-26 12:10:00,86.4,75.9,29.65,SW,230,2.0,8.0,71,0.00,,,0.00,VWS V14.01,2013-06-26 17:10:00,
2013-06-26 12:15:00,86.3,77.0,29.64,WSW,240,6.0,8.0,74,0.00,,,0.00,VWS V14.01,2013-06-26 17:15:00,
2013-06-26 12:20:00,86.6,76.5,29.64,WSW,240,3.0,9.0,72,0.00,,,0.00,VWS V14.01,2013-06-26 17:20:00,
2013-06-26 12:25:00,86.8,76.7,29.64,SW,220,1.0,9.0,72,0.00,,,0.00,VWS V14.01,2013-06-26 17:25:00,
2013-06-26 12:30:00,87.0,76.5,29.64,WSW,251,3.0,9.0,71,0.00,,,0.00,VWS V14.01,2013-06-26 17:30:00,
2013-06-26 12:35:00,87.1,75.7,29.65,SSW,213,1.0,11.0,69,0.00,,,0.00,VWS V14.01,2013-06-26 17:35:00,
2013-06-26 12:40:00,87.5,76.1,29.64,West,266,7.0,9.0,69,0.00,,,0.00,VWS V14.01,2013-06-26 17:40:00,
2013-06-26 12:45:00,87.7,75.8,29.64,West,274,2.0,11.0,68,0.00,,,0.00,VWS V14.01,2013-06-26 17:45:00,
2013-06-26 12:50:00,87.7,75.8,29.64,WNW,283,2.0,11.0,68,0.00,,,0.00,VWS V14.01,2013-06-26 17:50:00,
2013-06-26 12:55:00,87.7,75.8,29.64,West,261,3.0,12.0,68,0.00,,,0.00,VWS V14.01,2013-06-26 17:55:00,
2013-06-26 13:01:00,87.5,75.2,29.64,WNW,293,4.0,12.0,67,0.00,,,0.00,VWS V14.01,2013-06-26 18:01:00,
2013-06-26 13:06:00,87.3,75.9,29.64,WSW,251,7.0,14.0,69,0.00,,,0.00,VWS V14.01,2013-06-26 18:06:00,
2013-06-26 13:11:00,87.3,75.9,29.64,SE,140,0.0,14.0,69,0.00,,,0.00,VWS V14.01,2013-06-26 18:11:00,
2013-06-26 13:16:00,87.4,75.1,29.64,NW,312,1.0,14.0,67,0.00,,,0.00,VWS V14.01,2013-06-26 18:16:00,
2013-06-26 13:21:00,87.6,74.8,29.64,NNW,343,1.0,14.0,66,0.00,,,0.00,VWS V14.01,2013-06-26 18:21:00,
2013-06-26 13:26:00,87.7,74.5,29.64,SW,215,2.0,14.0,65,0.00,,,0.00,VWS V14.01,2013-06-26 18:26:00,
2013-06-26 13:31:00,87.6,73.9,29.64,WNW,282,1.0,14.0,64,0.00,,,0.00,VWS V14.01,2013-06-26 18:31:00,
2013-06-26 13:36:00,87.5,74.8,29.64,NW,310,0.0,4.0,66,0.00,,,0.00,VWS V14.01,2013-06-26 18:36:00,
2013-06-26 13:41:00,87.5,72.9,29.63,WSW,251,1.0,7.0,62,0.00,,,0.00,VWS V14.01,2013-06-26 18:41:00,
2013-06-26 13:46:00,87.5,73.8,29.64,SW,232,0.0,7.0,64,0.00,,,0.00,VWS V14.01,2013-06-26 18:46:00,
2013-06-26 13:51:00,87.6,73.9,29.64,WNW,283,2.0,12.0,64,0.00,,,0.00,VWS V14.01,2013-06-26 18:51:00,
2013-06-26 13:56:00,88.0,73.8,29.64,West,277,6.0,12.0,63,0.00,,,0.00,VWS V14.01,2013-06-26 18:56:00,
2013-06-26 14:01:00,88.5,73.3,29.64,SW,222,1.0,12.0,61,0.00,,,0.00,VWS V14.01,2013-06-26 19:01:00,
2013-06-26 14:07:00,88.8,73.6,29.64,NW,310,2.0,5.0,61,0.00,,,0.00,VWS V14.01,2013-06-26 19:07:00,
2013-06-26 14:12:00,88.7,73.0,29.64,WNW,285,1.0,7.0,60,0.00,,,0.00,VWS V14.01,2013-06-26 19:12:00,
2013-06-26 14:17:00,88.7,72.5,29.64,NE,41,2.0,7.0,59,0.00,,,0.00,VWS V14.01,2013-06-26 19:17:00,
2013-06-26 14:22:00,88.7,72.0,29.64,West,266,1.0,7.0,58,0.00,,,0.00,VWS V14.01,2013-06-26 19:22:00,
2013-06-26 14:27:00,88.9,73.2,29.64,West,268,6.0,7.0,60,0.00,,,0.00,VWS V14.01,2013-06-26 19:27:00,
2013-06-26 14:32:00,89.2,72.0,29.65,SW,235,5.0,8.0,57,0.00,,,0.00,VWS V14.01,2013-06-26 19:32:00,
2013-06-26 14:37:00,89.2,70.9,29.65,West,259,4.0,9.0,55,0.00,,,0.00,VWS V14.01,2013-06-26 19:37:00,
2013-06-26 14:42:00,89.7,70.3,29.65,NW,309,4.0,15.0,53,0.00,,,0.00,VWS V14.01,2013-06-26 19:42:00,
2013-06-26 14:47:00,89.8,70.4,29.65,WNW,303,3.0,15.0,53,0.00,,,0.00,VWS V14.01,2013-06-26 19:47:00,
2013-06-26 14:52:00,89.9,70.5,29.65,WNW,289,0.0,15.0,53,0.00,,,0.00,VWS V14.01,2013-06-26 19:52:00,
2013-06-26 14:57:00,90.1,69.6,29.65,WNW,291,3.0,15.0,51,0.00,,,0.00,VWS V14.01,2013-06-26 19:57:00,
2013-06-26 15:02:00,90.3,72.5,29.65,WSW,258,2.0,15.0,56,0.00,,,0.00,VWS V14.01,2013-06-26 20:02:00,
2013-06-26 15:07:00,90.4,70.4,29.66,NW,312,0.0,4.0,52,0.00,,,0.00,VWS V14.01,2013-06-26 20:07:00,
2013-06-26 15:12:00,90.4,70.9,29.66,SE,124,1.0,6.0,53,0.00,,,0.00,VWS V14.01,2013-06-26 20:12:00,
2013-06-26 15:17:00,89.9,70.5,29.66,WSW,251,4.0,6.0,53,0.00,,,0.00,VWS V14.01,2013-06-26 20:17:00,
2013-06-26 15:22:00,89.4,71.1,29.66,NNE,30,0.0,6.0,55,0.00,,,0.00,VWS V14.01,2013-06-26 20:22:00,
2013-06-26 15:27:00,88.9,71.2,29.66,SW,222,2.0,12.0,56,0.00,,,0.00,VWS V14.01,2013-06-26 20:27:00,
2013-06-26 15:32:00,88.6,70.9,29.66,WNW,289,3.0,15.0,56,0.00,,,0.00,VWS V14.01,2013-06-26 20:32:00,
2013-06-26 15:37:00,88.6,69.8,29.66,NW,308,4.0,7.0,54,0.00,,,0.00,VWS V14.01,2013-06-26 20:37:00,
2013-06-26 15:42:00,88.5,70.8,29.66,WNW,301,3.0,10.0,56,0.00,,,0.00,VWS V14.01,2013-06-26 20:42:00,
2013-06-26 15:48:00,88.5,71.3,29.66,NW,312,4.0,10.0,57,0.00,,,0.00,VWS V14.01,2013-06-26 20:48:00,
2013-06-26 15:53:00,88.4,70.7,29.66,NNW,330,3.0,12.0,56,0.00,,,0.00,VWS V14.01,2013-06-26 20:53:00,
2013-06-26 15:58:00,88.4,71.8,29.66,NW,316,1.0,12.0,58,0.00,,,0.00,VWS V14.01,2013-06-26 20:58:00,
2013-06-26 16:03:00,88.5,70.3,29.67,SSW,209,2.0,12.0,55,0.00,,,0.00,VWS V14.01,2013-06-26 21:03:00,
2013-06-26 16:08:00,88.6,70.4,29.67,West,269,5.0,8.0,55,0.00,,,0.00,VWS V14.01,2013-06-26 21:08:00,
2013-06-26 16:13:00,88.7,70.5,29.67,NW,326,1.0,12.0,55,0.00,,,0.00,VWS V14.01,2013-06-26 21:13:00,
2013-06-26 16:18:00,88.7,69.9,29.67,NW,318,3.0,12.0,54,0.00,,,0.00,VWS V14.01,2013-06-26 21:18:00,
2013-06-26 16:23:00,88.5,68.6,29.67,WNW,292,3.0,12.0,52,0.00,,,0.00,VWS V14.01,2013-06-26 21:23:00,
2013-06-26 16:28:00,88.4,69.7,29.67,WNW,296,4.0,12.0,54,0.00,,,0.00,VWS V14.01,2013-06-26 21:28:00,
2013-06-26 16:33:00,88.4,69.7,29.68,WNW,297,5.0,12.0,54,0.00,,,0.00,VWS V14.01,2013-06-26 21:33:00,
2013-06-26 16:38:00,88.4,69.1,29.68,West,275,8.0,8.0,53,0.00,,,0.00,VWS V14.01,2013-06-26 21:38:00,
2013-06-26 16:43:00,88.2,68.9,29.67,WSW,237,2.0,8.0,53,0.00,,,0.00,VWS V14.01,2013-06-26 21:43:00,
2013-06-26 16:48:00,88.0,69.3,29.67,NW,319,2.0,8.0,54,0.00,,,0.00,VWS V14.01,2013-06-26 21:48:00,
2013-06-26 16:53:00,87.9,69.2,29.67,WNW,295,4.0,8.0,54,0.00,,,0.00,VWS V14.01,2013-06-26 21:53:00,
2013-06-26 16:59:00,87.7,68.5,29.67,SE,137,1.0,11.0,53,0.00,,,0.00,VWS V14.01,2013-06-26 21:59:00,
2013-06-26 17:04:00,87.7,69.0,29.67,NW,319,0.0,1.0,54,0.00,,,0.00,VWS V14.01,2013-06-26 22:04:00,
2013-06-26 17:09:00,87.7,69.0,29.67,West,272,1.0,4.0,54,0.00,,,0.00,VWS V14.01,2013-06-26 22:09:00,
2013-06-26 17:14:00,87.6,68.4,29.68,WSW,248,1.0,7.0,53,0.00,,,0.00,VWS V14.01,2013-06-26 22:14:00,
2013-06-26 17:19:00,87.3,68.1,29.68,ENE,65,0.0,7.0,53,0.00,,,0.00,VWS V14.01,2013-06-26 22:19:00,
2013-06-26 17:24:00,86.9,68.8,29.68,NE,37,2.0,7.0,55,0.00,,,0.00,VWS V14.01,2013-06-26 22:24:00,
2013-06-26 17:29:00,86.9,68.3,29.68,WSW,243,6.0,8.0,54,0.00,,,0.00,VWS V14.01,2013-06-26 22:29:00,
2013-06-26 17:34:00,87.0,68.9,29.67,WSW,254,2.0,3.0,55,0.00,,,0.00,VWS V14.01,2013-06-26 22:34:00,
2013-06-26 17:39:00,87.2,69.1,29.68,NNE,27,3.0,10.0,55,0.00,,,0.00,VWS V14.01,2013-06-26 22:39:00,
2013-06-26 17:44:00,87.3,69.7,29.68,SW,231,1.0,10.0,56,0.00,,,0.00,VWS V14.01,2013-06-26 22:44:00,
2013-06-26 17:49:00,87.1,68.4,29.67,WNW,302,4.0,10.0,54,0.00,,,0.00,VWS V14.01,2013-06-26 22:49:00,
2013-06-26 17:55:00,86.9,68.8,29.67,WSW,239,5.0,10.0,55,0.00,,,0.00,VWS V14.01,2013-06-26 22:55:00,
2013-06-26 18:00:00,86.7,68.6,29.67,West,266,5.0,10.0,55,0.00,,,0.00,VWS V14.01,2013-06-26 23:00:00,
2013-06-26 18:05:00,86.2,67.6,29.68,West,262,1.0,5.0,54,0.00,,,0.00,VWS V14.01,2013-06-26 23:05:00,
2013-06-26 18:10:00,85.6,67.6,29.68,WNW,289,6.0,6.0,55,0.00,,,0.00,VWS V14.01,2013-06-26 23:10:00,
2013-06-26 18:15:00,85.3,68.3,29.68,North,4,1.0,6.0,57,0.00,,,0.00,VWS V14.01,2013-06-26 23:15:00,
2013-06-26 18:20:00,85.0,68.6,29.68,NW,307,2.0,6.0,58,0.00,,,0.00,VWS V14.01,2013-06-26 23:20:00,
2013-06-26 18:25:00,84.7,67.8,29.68,NNW,341,2.0,6.0,57,0.00,,,0.00,VWS V14.01,2013-06-26 23:25:00,
2013-06-26 18:30:00,84.5,67.6,29.68,North,354,0.0,6.0,57,0.00,,,0.00,VWS V14.01,2013-06-26 23:30:00,
2013-06-26 18:35:00,84.3,68.4,29.68,NW,326,4.0,6.0,59,0.00,,,0.00,VWS V14.01,2013-06-26 23:35:00,
2013-06-26 18:40:00,84.0,67.7,29.68,NW,307,2.0,6.0,58,0.00,,,0.00,VWS V14.01,2013-06-26 23:40:00,
2013-06-26 18:45:00,83.8,67.5,29.69,West,260,1.0,7.0,58,0.00,,,0.00,VWS V14.01,2013-06-26 23:45:00,
2013-06-26 18:50:00,83.6,66.8,29.69,SSW,201,1.0,7.0,57,0.00,,,0.00,VWS V14.01,2013-06-26 23:50:00,
2013-06-26 18:56:00,83.3,67.0,29.69,WNW,303,0.0,7.0,58,0.00,,,0.00,VWS V14.01,2013-06-26 23:56:00,
2013-06-26 19:01:00,83.0,67.2,29.69,NE,35,1.0,7.0,59,0.00,,,0.00,VWS V14.01,2013-06-27 00:01:00,
2013-06-26 19:06:00,82.9,67.1,29.69,WNW,303,2.0,6.0,59,0.00,,,0.00,VWS V14.01,2013-06-27 00:06:00,
2013-06-26 19:11:00,82.7,66.9,29.69,WNW,297,1.0,6.0,59,0.00,,,0.00,VWS V14.01,2013-06-27 00:11:00,
2013-06-26 19:16:00,82.5,66.7,29.69,East,94,1.0,6.0,59,0.00,,,0.00,VWS V14.01,2013-06-27 00:16:00,
2013-06-26 19:21:00,82.3,66.1,29.69,ESE,116,0.0,6.0,58,0.00,,,0.00,VWS V14.01,2013-06-27 00:21:00,
2013-06-26 19:26:00,82.1,66.4,29.69,NNE,28,1.0,6.0,59,0.00,,,0.00,VWS V14.01,2013-06-27 00:26:00,
2013-06-26 19:31:00,81.9,67.1,29.69,WSW,243,1.0,6.0,61,0.00,,,0.00,VWS V14.01,2013-06-27 00:31:00,
2013-06-26 19:36:00,81.8,66.6,29.70,WNW,300,1.0,3.0,60,0.00,,,0.00,VWS V14.01,2013-06-27 00:36:00,
2013-06-26 19:41:00,81.6,66.4,29.70,WNW,282,1.0,5.0,60,0.00,,,0.00,VWS V14.01,2013-06-27 00:41:00,
2013-06-26 19:46:00,81.6,66.9,29.70,WNW,301,1.0,5.0,61,0.00,,,0.00,VWS V14.01,2013-06-27 00:46:00,
2013-06-26 19:51:00,81.5,67.7,29.70,WSW,245,0.0,5.0,63,0.00,,,0.00,VWS V14.01,2013-06-27 00:51:00,
2013-06-26 19:57:00,81.4,67.6,29.70,SW,226,0.0,5.0,63,0.00,,,0.00,VWS V14.01,2013-06-27 00:57:00,
2013-06-26 20:02:00,81.2,67.4,29.70,WSW,256,0.0,5.0,63,0.00,,,0.00,VWS V14.01,2013-06-27 01:02:00,
2013-06-26 20:07:00,81.1,67.3,29.70,WSW,257,2.0,4.0,63,0.00,,,0.00,VWS V14.01,2013-06-27 01:07:00,
2013-06-26 20:12:00,80.8,67.5,29.70,West,260,0.0,4.0,64,0.00,,,0.00,VWS V14.01,2013-06-27 01:12:00,
2013-06-26 20:17:00,80.5,67.2,29.70,WNW,282,0.0,4.0,64,0.00,,,0.00,VWS V14.01,2013-06-27 01:17:00,
2013-06-26 20:22:00,80.3,67.5,29.70,West,268,2.0,4.0,65,0.00,,,0.00,VWS V14.01,2013-06-27 01:22:00,
2013-06-26 20:27:00,80.1,67.7,29.70,WNW,293,0.0,4.0,66,0.00,,,0.00,VWS V14.01,2013-06-27 01:27:00,
2013-06-26 20:32:00,79.8,67.4,29.70,WSW,254,2.0,4.0,66,0.00,,,0.00,VWS V14.01,2013-06-27 01:32:00,
2013-06-26 20:37:00,79.6,67.2,29.71,West,279,3.0,5.0,66,0.00,,,0.00,VWS V14.01,2013-06-27 01:37:00,
2013-06-26 20:43:00,79.3,67.4,29.71,West,266,0.0,5.0,67,0.00,,,0.00,VWS V14.01,2013-06-27 01:43:00,
2013-06-26 20:48:00,79.1,67.2,29.71,NE,53,0.0,5.0,67,0.00,,,0.00,VWS V14.01,2013-06-27 01:48:00,
2013-06-26 20:53:00,78.8,66.9,29.71,NW,311,1.0,5.0,67,0.00,,,0.00,VWS V14.01,2013-06-27 01:53:00,
2013-06-26 20:58:00,78.6,66.7,29.71,West,274,1.0,5.0,67,0.00,,,0.00,VWS V14.01,2013-06-27 01:58:00,
2013-06-26 21:03:00,78.3,66.4,29.72,WNW,284,2.0,5.0,67,0.00,,,0.00,VWS V14.01,2013-06-27 02:03:00,
2013-06-26 21:08:00,78.2,66.4,29.72,NNW,334,0.0,4.0,67,0.00,,,0.00,VWS V14.01,2013-06-27 02:08:00,
2013-06-26 21:13:00,78.0,66.6,29.72,WSW,237,0.0,4.0,68,0.00,,,0.00,VWS V14.01,2013-06-27 02:13:00,
2013-06-26 21:18:00,77.8,66.4,29.72,NW,316,0.0,4.0,68,0.00,,,0.00,VWS V14.01,2013-06-27 02:18:00,
2013-06-26 21:23:00,77.6,66.2,29.72,SW,233,0.0,4.0,68,0.00,,,0.00,VWS V14.01,2013-06-27 02:23:00,
2013-06-26 21:28:00,77.4,66.4,29.72,WSW,241,0.0,4.0,69,0.00,,,0.00,VWS V14.01,2013-06-27 02:28:00,
2013-06-26 21:33:00,77.1,65.7,29.72,NNE,32,0.0,1.0,68,0.00,,,0.00,VWS V14.01,2013-06-27 02:33:00,
2013-06-26 21:39:00,76.9,65.5,29.73,SW,214,0.0,2.0,68,0.00,,,0.00,VWS V14.01,2013-06-27 02:39:00,
2013-06-26 21:44:00,76.7,65.8,29.73,NE,43,0.0,2.0,69,0.00,,,0.00,VWS V14.01,2013-06-27 02:44:00,
2013-06-26 21:49:00,76.5,64.7,29.73,NNW,339,0.0,2.0,67,0.00,,,0.00,VWS V14.01,2013-06-27 02:49:00,
2013-06-26 21:54:00,76.4,65.1,29.74,WSW,250,0.0,3.0,68,0.00,,,0.00,VWS V14.01,2013-06-27 02:54:00,
2013-06-26 21:59:00,76.2,64.9,29.74,NNW,329,1.0,4.0,68,0.00,,,0.00,VWS V14.01,2013-06-27 02:59:00,
2013-06-26 22:04:00,76.0,65.1,29.74,West,265,0.0,2.0,69,0.00,,,0.00,VWS V14.01,2013-06-27 03:04:00,
2013-06-26 22:09:00,75.7,64.4,29.74,West,281,0.0,5.0,68,0.00,,,0.00,VWS V14.01,2013-06-27 03:09:00,
2013-06-26 22:14:00,75.5,64.6,29.74,West,273,0.0,5.0,69,0.00,,,0.00,VWS V14.01,2013-06-27 03:14:00,
2013-06-26 22:19:00,75.3,64.8,29.75,WSW,245,0.0,5.0,70,0.00,,,0.00,VWS V14.01,2013-06-27 03:19:00,
2013-06-26 22:24:00,75.2,64.8,29.75,SSW,199,0.0,5.0,70,0.00,,,0.00,VWS V14.01,2013-06-27 03:24:00,
2013-06-26 22:30:00,75.1,64.7,29.75,WNW,286,1.0,5.0,70,0.00,,,0.00,VWS V14.01,2013-06-27 03:30:00,
2013-06-26 22:35:00,74.9,64.9,29.76,NW,304,1.0,2.0,71,0.00,,,0.00,VWS V14.01,2013-06-27 03:35:00,
2013-06-26 22:40:00,74.8,64.8,29.76,West,272,0.0,2.0,71,0.00,,,0.00,VWS V14.01,2013-06-27 03:40:00,
2013-06-26 22:45:00,74.7,65.1,29.76,West,260,0.0,2.0,72,0.00,,,0.00,VWS V14.01,2013-06-27 03:45:00,
2013-06-26 22:50:00,74.5,64.9,29.76,WSW,251,1.0,2.0,72,0.00,,,0.00,VWS V14.01,2013-06-27 03:50:00,
2013-06-26 22:55:00,74.4,64.8,29.76,NNE,29,0.0,2.0,72,0.00,,,0.00,VWS V14.01,2013-06-27 03:55:00,
2013-06-26 23:00:00,74.2,65.4,29.76,NNE,29,0.0,2.0,74,0.00,,,0.00,VWS V14.01,2013-06-27 04:00:00,
2013-06-26 23:01:00,74.2,65.4,29.76,NNE,29,0.0,2.0,74,0.00,,,0.00,VWS V14.01,2013-06-27 04:01:00,
2013-06-26 23:02:00,74.2,65.0,29.76,NNE,29,0.0,2.0,73,0.00,,,0.00,VWS V14.01,2013-06-27 04:02:00,
2013-06-26 23:03:00,74.2,65.0,29.76,NNE,29,0.0,2.0,73,0.00,,,0.00,VWS V14.01,2013-06-27 04:03:00,
2013-06-26 23:08:00,74.0,64.8,29.76,WSW,251,0.0,3.0,73,0.00,,,0.00,VWS V14.01,2013-06-27 04:08:00,
2013-06-26 23:13:00,73.8,65.4,29.76,WSW,248,1.0,3.0,75,0.00,,,0.00,VWS V14.01,2013-06-27 04:13:00,
2013-06-26 23:18:00,73.6,65.2,29.76,WSW,248,0.0,3.0,75,0.00,,,0.00,VWS V14.01,2013-06-27 04:18:00,
2013-06-26 23:23:00,73.4,65.0,29.76,WSW,249,1.0,3.0,75,0.00,,,0.00,VWS V14.01,2013-06-27 04:23:00,
2013-06-26 23:28:00,73.1,64.7,29.76,WSW,248,0.0,3.0,75,0.00,,,0.00,VWS V14.01,2013-06-27 04:28:00,
2013-06-26 23:33:00,73.0,65.0,29.76,WSW,248,0.0,3.0,76,0.00,,,0.00,VWS V14.01,2013-06-27 04:33:00,
2013-06-26 23:38:00,72.8,65.6,29.75,WSW,248,0.0,0.0,78,0.00,,,0.00,VWS V14.01,2013-06-27 04:38:00,
2013-06-26 23:43:00,72.6,65.0,29.76,WSW,248,0.0,0.0,77,0.00,,,0.00,VWS V14.01,2013-06-27 04:43:00,
2013-06-26 23:48:00,72.5,65.3,29.75,WSW,248,0.0,1.0,78,0.00,,,0.00,VWS V14.01,2013-06-27 04:48:00,
2013-06-26 23:53:00,72.4,65.2,29.76,WSW,249,0.0,1.0,78,0.00,,,0.00,VWS V14.01,2013-06-27 04:53:00,
2013-06-26 23:59:00,72.3,65.1,29.76,WSW,258,0.0,2.0,78,0.00,,,0.00,VWS V14.01,2013-06-27 04:59:00,